Time;durP1;ratioP1;P1;durP2;ratioP2;P2;SDS_P1;SDS_P2;PMS_P1;PMS_P2;Temp;Humidity;BMP_temperature;BMP_pressure;BME280_temperature;BME280_humidity;BME280_pressure;Samples;Min_cycle;Max_cycle;Signal;HPM_P1;HPM_P2
2022/07/17 00:01:00;;;;;;;;;5.00;3.00;;;;;24.65;34.75;102258.13;2392310;28;44791;-83
2022/07/17 00:02:11;;;;;;;;;4.50;4.50;;;;;24.66;34.71;102258.97;2395363;28;46212;-83
2022/07/17 00:03:21;;;;;;;;;4.00;4.00;;;;;24.66;35.10;102256.28;2392638;28;45264;-83
2022/07/17 00:04:31;;;;;;;;;4.00;4.00;;;;;24.64;34.94;102256.41;2395413;28;46138;-83
2022/07/17 00:05:43;;;;;;;;;4.25;3.00;;;;;24.66;35.31;102253.59;2399571;28;45306;-83
2022/07/17 00:06:54;;;;;;;;;4.50;3.25;;;;;24.65;35.40;102258.13;2401115;28;45795;-83
2022/07/17 00:08:06;;;;;;;;;4.50;3.50;;;;;24.66;35.19;102259.84;2407197;28;44661;-83
2022/07/17 00:09:16;;;;;;;;;4.00;4.00;;;;;24.67;35.19;102258.03;2413382;28;46234;-83
2022/07/17 00:10:27;;;;;;;;;5.00;4.00;;;;;24.64;34.61;102256.41;2413911;28;44673;-85
2022/07/17 00:11:37;;;;;;;;;4.00;3.00;;;;;24.60;34.79;102254.88;2413808;28;45253;-86
2022/07/17 00:12:47;;;;;;;;;5.50;4.00;;;;;24.59;35.01;102258.56;2403848;28;45300;-84
2022/07/17 00:13:58;;;;;;;;;3.00;3.00;;;;;24.57;34.77;102255.97;2406403;28;45259;-83
2022/07/17 00:15:09;;;;;;;;;4.00;4.00;;;;;24.55;34.85;102257.91;2413974;28;45226;-83
2022/07/17 00:16:19;;;;;;;;;5.00;4.00;;;;;24.53;34.94;102251.78;2396361;28;47100;-83
2022/07/17 00:17:29;;;;;;;;;4.50;4.00;;;;;24.54;35.43;102256.19;2399962;28;45313;-83
2022/07/17 00:18:40;;;;;;;;;4.50;4.00;;;;;24.55;35.42;102259.72;2404072;28;46170;-84
2022/07/17 00:19:51;;;;;;;;;4.25;4.25;;;;;24.53;35.51;102257.16;2412983;28;45384;-84
2022/07/17 00:21:01;;;;;;;;;4.50;4.50;;;;;24.54;34.92;102250.81;2413192;28;46553;-84
2022/07/17 00:22:11;;;;;;;;;3.75;3.50;;;;;24.56;35.22;102254.25;2413917;28;45404;-83
2022/07/17 00:23:22;;;;;;;;;4.50;4.00;;;;;24.56;35.31;102250.69;2413875;28;46296;-84
2022/07/17 00:24:32;;;;;;;;;4.25;4.25;;;;;24.56;35.14;102253.38;2413830;28;45205;-84
2022/07/17 00:25:43;;;;;;;;;3.75;3.00;;;;;24.56;35.74;102258.75;2403461;28;46984;-84
2022/07/17 00:26:53;;;;;;;;;4.00;4.00;;;;;24.55;35.52;102257.03;2406147;28;45333;-85
2022/07/17 00:28:04;;;;;;;;;4.00;4.00;;;;;24.54;35.13;102253.50;2408327;28;45532;-84
2022/07/17 00:29:15;;;;;;;;;4.00;3.75;;;;;24.54;35.21;102250.81;2395057;28;45193;-84
2022/07/17 00:30:25;;;;;;;;;3.75;3.75;;;;;24.50;35.54;102250.16;2397423;28;48286;-82
2022/07/17 00:31:35;;;;;;;;;2.75;2.75;;;;;24.50;35.66;102250.16;2400964;28;46676;-82
2022/07/17 00:32:46;;;;;;;;;4.00;3.25;;;;;24.50;35.83;102254.66;2384272;28;46965;-82
2022/07/17 00:33:56;;;;;;;;;4.00;2.75;;;;;24.47;35.62;102253.03;2404466;28;45439;-82
2022/07/17 00:35:07;;;;;;;;;3.50;3.00;;;;;24.47;35.97;102255.72;2413658;28;46396;-82
2022/07/17 00:36:18;;;;;;;;;4.00;3.00;;;;;24.47;35.78;102260.28;2411334;28;45463;-82
2022/07/17 00:37:28;;;;;;;;;4.00;4.00;;;;;24.46;35.33;102254.03;2413256;28;45201;-82
2022/07/17 00:38:38;;;;;;;;;4.00;4.00;;;;;24.43;35.88;102254.22;2413638;28;45159;-82
2022/07/17 00:39:49;;;;;;;;;3.00;3.00;;;;;24.40;35.68;102254.44;2412079;28;46126;-82
2022/07/17 00:40:59;;;;;;;;;5.00;3.75;;;;;24.39;35.70;102252.72;2403385;28;45235;-82
2022/07/17 00:42:14;;;;;;;;;2.25;2.25;;;;;24.36;35.57;102253.81;2410738;28;46261;-82
2022/07/17 00:43:25;;;;;;;;;4.00;4.00;;;;;24.34;35.33;102249.50;2413859;28;44702;-82
2022/07/17 00:44:35;;;;;;;;;3.75;3.50;;;;;24.27;35.33;102241.84;2413618;28;45427;-82
2022/07/17 00:45:45;;;;;;;;;5.50;5.00;;;;;24.24;35.57;102243.88;2413662;28;45223;-82
2022/07/17 00:46:56;;;;;;;;;3.25;3.25;;;;;24.23;35.75;102236.75;2411041;28;47765;-82
2022/07/17 00:48:10;;;;;;;;;3.50;3.50;;;;;24.19;35.89;102241.50;2400024;28;45411;-82
2022/07/17 00:49:20;;;;;;;;;5.25;3.50;;;;;24.17;35.65;102240.75;2401170;28;45638;-82
2022/07/17 00:50:36;;;;;;;;;6.00;2.25;;;;;24.15;35.64;102240.00;2413006;28;45369;-82
2022/07/17 00:51:46;;;;;;;;;4.00;3.00;;;;;24.12;35.73;102241.06;2403338;28;48251;-82
2022/07/17 00:52:57;;;;;;;;;4.00;3.75;;;;;24.08;35.54;102239.53;2403679;28;44730;-82
2022/07/17 00:54:08;;;;;;;;;4.00;4.00;;;;;24.07;35.88;102247.69;2396561;28;47398;-82
2022/07/17 00:55:18;;;;;;;;;4.00;4.00;;;;;24.05;36.03;102251.31;2396731;28;44587;-82
2022/07/17 00:56:29;;;;;;;;;4.50;4.50;;;;;24.06;36.51;102254.88;2406162;28;45250;-82
2022/07/17 00:57:40;;;;;;;;;5.00;3.00;;;;;24.03;36.07;102250.56;2413692;28;45231;-85
2022/07/17 06:17:28;;;;;;;;;5.00;3.25;;;;;22.02;40.47;102319.03;2546442;22;45602;-81
2022/07/17 06:18:38;;;;;;;;;4.00;3.00;;;;;22.04;40.03;102310.91;2401318;28;45354;-82
2022/07/17 06:19:51;;;;;;;;;3.50;1.25;;;;;22.05;40.39;102312.59;2402306;28;45286;-80
2022/07/17 06:21:02;;;;;;;;;2.25;2.25;;;;;22.09;40.63;102311.50;2393235;28;48235;-81
2022/07/17 06:22:12;;;;;;;;;4.25;3.00;;;;;22.13;40.20;102314.84;2396163;28;45399;-79
2022/07/17 06:23:22;;;;;;;;;4.75;4.75;;;;;22.16;40.41;102309.31;2393228;28;47326;-79
2022/07/17 06:24:33;;;;;;;;;4.25;3.50;;;;;22.23;40.28;102315.19;2394275;28;44617;-79
2022/07/17 06:25:43;;;;;;;;;2.25;2.25;;;;;22.29;40.65;102319.34;2389921;28;45938;-80
2022/07/17 06:26:53;;;;;;;;;2.25;2.25;;;;;22.32;40.18;102324.50;2396358;28;45184;-79
2022/07/17 06:28:04;;;;;;;;;3.00;3.00;;;;;22.32;39.82;102327.19;2403158;28;45243;-78
2022/07/17 06:29:14;;;;;;;;;4.75;2.00;;;;;22.34;40.04;102322.59;2403393;28;45299;-78
2022/07/17 06:30:24;;;;;;;;;4.00;3.00;;;;;22.39;39.35;102316.97;2403467;28;46195;-78
2022/07/17 06:31:35;;;;;;;;;3.00;1.50;;;;;22.41;40.42;102317.75;2403486;28;45428;-77
2022/07/17 06:32:45;;;;;;;;;3.50;3.00;;;;;22.44;39.42;102317.56;2402952;28;45412;-78
2022/07/17 06:33:56;;;;;;;;;3.50;3.25;;;;;22.45;39.63;102320.16;2403376;28;45225;-78
2022/07/17 06:35:07;;;;;;;;;3.50;2.50;;;;;22.47;39.73;102320.09;2393194;28;46067;-78
2022/07/17 06:36:17;;;;;;;;;2.25;2.25;;;;;22.50;40.19;102322.56;2396285;28;45301;-78
2022/07/17 06:37:27;;;;;;;;;3.50;3.50;;;;;22.53;39.95;102317.03;2403296;28;45519;-78
2022/07/17 06:38:38;;;;;;;;;3.00;3.00;;;;;22.55;39.64;102312.44;2403560;28;45229;-78
2022/07/17 06:39:48;;;;;;;;;2.50;2.50;;;;;22.56;39.34;102316.84;2403301;28;46211;-78
2022/07/17 06:40:59;;;;;;;;;5.00;3.00;;;;;22.58;39.13;102322.97;2393185;28;45493;-78
2022/07/17 06:42:10;;;;;;;;;3.50;3.00;;;;;22.57;39.73;102315.03;2396050;28;45473;-78
2022/07/17 06:43:20;;;;;;;;;2.00;2.00;;;;;22.56;39.07;102322.22;2402637;28;44783;-78
2022/07/17 06:44:31;;;;;;;;;2.00;2.00;;;;;22.54;39.59;102316.09;2403057;28;45246;-79
2022/07/17 06:45:41;;;;;;;;;2.75;1.75;;;;;22.56;39.44;102319.53;2403411;28;45173;-79
2022/07/17 06:46:52;;;;;;;;;5.00;3.00;;;;;22.57;39.73;102317.72;2402772;28;45333;-79
2022/07/17 06:48:02;;;;;;;;;4.00;3.00;;;;;22.60;39.98;102322.88;2403270;28;45204;-80
2022/07/17 06:49:13;;;;;;;;;5.50;3.00;;;;;22.62;39.39;102320.97;2392788;28;46354;-79
2022/07/17 06:50:23;;;;;;;;;3.00;3.00;;;;;22.65;39.29;102320.78;2386653;28;45234;-79
2022/07/17 06:51:33;;;;;;;;;3.00;3.00;;;;;22.66;39.79;102310.94;2400297;28;46316;-78
2022/07/17 06:52:44;;;;;;;;;5.00;2.25;;;;;22.71;39.94;102311.56;2402868;28;45150;-79
2022/07/17 06:53:54;;;;;;;;;4.75;3.00;;;;;22.75;39.54;102318.44;2403270;28;45537;-79
2022/07/17 06:55:05;;;;;;;;;3.00;3.00;;;;;22.79;39.33;102311.09;2403423;28;44545;-79
2022/07/17 06:56:15;;;;;;;;;4.25;2.25;;;;;22.86;39.51;102311.56;2402221;28;45503;-79
2022/07/17 06:57:26;;;;;;;;;3.25;3.25;;;;;22.91;39.48;102302.31;2403158;28;45509;-79
2022/07/17 06:58:36;;;;;;;;;2.25;2.25;;;;;22.97;39.72;102309.09;2403126;28;45449;-79
2022/07/17 06:59:46;;;;;;;;;4.25;2.50;;;;;23.02;39.83;102306.13;2402901;28;45489;-79
2022/07/17 07:00:57;;;;;;;;;4.00;2.00;;;;;23.07;39.53;102298.66;2403018;28;46038;-79
2022/07/17 07:02:07;;;;;;;;;3.00;3.00;;;;;23.13;39.30;102300.97;2402571;28;45427;-78
2022/07/17 07:03:18;;;;;;;;;2.75;2.75;;;;;23.18;39.03;102305.19;2402161;28;45360;-79
2022/07/17 07:04:28;;;;;;;;;2.75;2.75;;;;;23.21;39.15;102300.47;2403396;28;44675;-79
2022/07/17 07:05:38;;;;;;;;;4.50;3.50;;;;;23.26;38.97;102297.53;2402911;28;45404;-78
2022/07/17 07:06:49;;;;;;;;;2.25;2.25;;;;;23.27;38.82;102302.78;2393020;28;45327;-79
2022/07/17 07:07:59;;;;;;;;;3.00;3.00;;;;;23.32;38.72;102307.00;2395622;28;46703;-79
2022/07/17 07:09:11;;;;;;;;;5.00;3.25;;;;;23.35;38.58;102306.81;2403415;28;45432;-79
2022/07/17 07:10:21;;;;;;;;;5.00;3.00;;;;;23.36;39.19;102308.53;2402854;28;47001;-79
2022/07/17 07:11:32;;;;;;;;;3.50;3.50;;;;;23.40;38.79;102314.56;2403063;28;45259;-79
2022/07/17 07:12:42;;;;;;;;;4.00;4.00;;;;;23.45;38.90;102302.59;2402881;28;45212;-79
2022/07/17 07:13:53;;;;;;;;;3.00;2.00;;;;;23.47;38.70;102310.53;2402707;28;45290;-79
2022/07/17 07:15:04;;;;;;;;;5.00;4.00;;;;;23.54;38.80;102306.53;2402807;28;45632;-79
2022/07/17 07:16:14;;;;;;;;;2.75;2.00;;;;;23.59;38.79;102309.78;2403126;28;45158;-79
2022/07/17 07:17:25;;;;;;;;;3.25;3.00;;;;;23.63;38.88;102313.09;2391869;28;46954;-79
2022/07/17 07:18:35;;;;;;;;;4.00;3.50;;;;;23.68;38.42;102312.84;2395826;28;45310;-79
2022/07/17 07:19:45;;;;;;;;;6.00;3.50;;;;;23.71;38.53;102313.47;2402952;28;45438;-79
2022/07/17 07:20:56;;;;;;;;;5.75;2.75;;;;;23.76;38.25;102321.22;2402653;28;44735;-79
2022/07/17 07:22:06;;;;;;;;;2.50;2.50;;;;;23.80;38.47;102317.41;2402923;28;45442;-79
2022/07/17 07:23:16;;;;;;;;;4.00;3.00;;;;;23.86;38.50;102321.50;2402795;28;45178;-79
2022/07/17 07:24:27;;;;;;;;;2.50;2.00;;;;;23.90;38.33;102316.81;2402891;28;46286;-79
2022/07/17 07:25:37;;;;;;;;;2.25;2.00;;;;;23.93;38.16;102320.13;2402950;28;45322;-79
2022/07/17 07:26:47;;;;;;;;;4.25;3.00;;;;;23.96;38.08;102316.38;2392645;28;47178;-79
2022/07/17 07:27:58;;;;;;;;;3.75;3.75;;;;;23.96;37.67;102312.84;2395640;28;44803;-79
2022/07/17 07:29:08;;;;;;;;;2.00;2.00;;;;;23.99;38.36;102321.56;2402697;28;47117;-79
2022/07/17 07:30:18;;;;;;;;;3.50;3.50;;;;;24.03;38.09;102316.84;2402132;28;44738;-79
2022/07/17 07:31:29;;;;;;;;;3.00;3.00;;;;;24.06;38.24;102316.66;2397596;28;47842;-79
2022/07/17 07:32:40;;;;;;;;;2.50;2.50;;;;;24.10;38.03;102315.47;2388660;28;44830;-79
2022/07/17 07:33:50;;;;;;;;;2.50;2.50;;;;;24.13;37.36;102315.28;2397752;28;46198;-80
2022/07/17 07:35:00;;;;;;;;;3.25;3.25;;;;;24.14;37.71;102313.44;2401886;28;45435;-80
2022/07/17 07:36:11;;;;;;;;;3.00;3.00;;;;;24.15;37.36;102313.34;2401759;28;45408;-79
2022/07/17 07:37:21;;;;;;;;;2.75;2.75;;;;;24.18;37.40;102312.28;2402132;28;44818;-80
2022/07/17 07:38:33;;;;;;;;;3.00;2.25;;;;;24.18;37.69;102309.59;2397442;28;45380;-79
2022/07/17 07:39:43;;;;;;;;;3.00;3.00;;;;;24.21;37.38;102314.75;2397238;28;45522;-79
2022/07/17 07:40:54;;;;;;;;;4.00;3.00;;;;;24.23;37.96;102318.22;2404083;28;46012;-79
2022/07/17 07:42:05;;;;;;;;;3.00;3.00;;;;;24.26;37.78;102312.66;2401843;28;44852;-80
2022/07/17 07:43:15;;;;;;;;;4.00;4.00;;;;;24.28;37.71;102309.88;2406130;28;46392;-80
2022/07/17 07:44:26;;;;;;;;;2.00;2.00;;;;;24.31;37.83;102303.44;2398383;28;45748;-80
2022/07/17 07:45:36;;;;;;;;;3.75;3.75;;;;;24.34;37.97;102303.22;2400386;28;46370;-80
2022/07/17 07:46:46;;;;;;;;;2.75;2.75;;;;;24.36;37.71;102302.16;2400685;28;45480;-80
2022/07/17 07:47:57;;;;;;;;;2.75;2.75;;;;;24.39;37.54;102296.59;2401023;28;45531;-80
2022/07/17 07:49:07;;;;;;;;;3.00;2.00;;;;;24.42;37.70;102300.03;2401718;28;45500;-80
2022/07/17 07:50:18;;;;;;;;;4.00;3.00;;;;;24.45;37.26;102302.47;2401257;28;45394;-80
2022/07/17 07:51:29;;;;;;;;;2.00;2.00;;;;;24.46;37.18;102296.16;2401593;28;45308;-80
2022/07/17 07:52:40;;;;;;;;;3.00;3.00;;;;;24.51;37.61;102299.41;2400634;28;47009;-80
2022/07/17 07:53:51;;;;;;;;;4.50;4.00;;;;;24.54;37.49;102296.50;2401352;28;45619;-80
2022/07/17 07:55:01;;;;;;;;;3.25;3.25;;;;;24.56;37.36;102296.38;2401283;28;45448;-80
2022/07/17 07:56:12;;;;;;;;;4.00;3.00;;;;;24.59;37.62;102299.75;2400435;28;45494;-80
2022/07/17 07:57:22;;;;;;;;;6.25;3.00;;;;;24.61;37.31;102297.81;2390868;28;47190;-80
2022/07/17 07:58:32;;;;;;;;;6.00;4.00;;;;;24.62;37.00;102295.94;2394407;28;45372;-80
2022/07/17 07:59:43;;;;;;;;;2.50;2.50;;;;;24.64;36.96;102301.25;2401580;28;46208;-80
2022/07/17 08:00:53;;;;;;;;;4.25;4.25;;;;;24.62;36.21;102301.31;2401459;28;45383;-80
2022/07/17 08:02:04;;;;;;;;;3.00;3.00;;;;;24.63;37.35;102302.19;2400766;28;45379;-80
2022/07/17 08:03:14;;;;;;;;;3.00;3.00;;;;;24.61;36.97;102300.50;2401369;28;45279;-80
2022/07/17 08:04:25;;;;;;;;;3.00;3.00;;;;;24.64;36.91;102304.78;2400673;28;46137;-80
2022/07/17 08:05:36;;;;;;;;;5.75;4.75;;;;;24.65;36.76;102309.19;2401718;28;45487;-80
2022/07/17 08:06:46;;;;;;;;;5.00;4.00;;;;;24.66;36.95;102308.22;2401602;28;45242;-80
2022/07/17 08:07:56;;;;;;;;;2.50;2.50;;;;;24.66;36.45;102308.22;2401275;28;45282;-80
2022/07/17 08:09:07;;;;;;;;;4.00;3.00;;;;;24.68;36.66;102310.81;2401401;28;45698;-80
2022/07/17 08:10:17;;;;;;;;;4.25;3.75;;;;;24.69;36.85;102312.53;2401626;28;45290;-80
2022/07/17 08:11:27;;;;;;;;;3.25;3.25;;;;;24.70;36.45;102306.19;2390870;28;47281;-80
2022/07/17 08:12:38;;;;;;;;;4.00;3.00;;;;;24.72;36.85;102307.78;2384331;28;45446;-80
2022/07/17 08:13:48;;;;;;;;;4.50;3.25;;;;;24.73;36.75;102303.28;2393701;28;46249;-80
2022/07/17 08:14:58;;;;;;;;;3.50;3.50;;;;;24.75;36.26;102306.72;2391157;28;45746;-80
2022/07/17 08:16:09;;;;;;;;;3.25;3.25;;;;;24.78;36.65;102311.03;2393070;28;45428;-80
2022/07/17 08:17:20;;;;;;;;;3.00;2.25;;;;;24.81;36.87;102302.75;2399838;28;45451;-80
2022/07/17 08:18:30;;;;;;;;;2.75;2.75;;;;;24.80;36.68;102309.97;2401325;28;45513;-80
2022/07/17 08:19:41;;;;;;;;;8.25;4.00;;;;;24.84;36.88;102311.44;2401440;28;45508;-80
2022/07/17 08:20:52;;;;;;;;;3.00;3.00;;;;;24.83;36.36;102299.00;2400713;28;46931;-80
2022/07/17 08:22:02;;;;;;;;;4.00;4.00;;;;;24.86;36.01;102299.75;2399773;28;45322;-80
2022/07/17 08:23:13;;;;;;;;;3.00;3.00;;;;;24.85;36.52;102298.88;2401363;28;45499;-80
2022/07/17 08:24:23;;;;;;;;;5.00;4.75;;;;;24.88;36.58;102300.50;2401498;28;45361;-80
2022/07/17 08:25:34;;;;;;;;;4.00;2.25;;;;;24.91;36.31;102297.59;2401301;28;46450;-80
2022/07/17 08:26:45;;;;;;;;;3.50;3.00;;;;;24.94;36.73;102298.22;2401321;28;45492;-80
2022/07/17 08:27:55;;;;;;;;;4.50;3.00;;;;;24.98;36.46;102298.00;2390981;28;47207;-80
2022/07/17 08:29:05;;;;;;;;;5.00;4.00;;;;;24.97;36.43;102297.16;2393236;28;45413;-80
2022/07/17 08:30:16;;;;;;;;;3.00;3.00;;;;;24.97;36.04;102291.78;2400109;28;45343;-80
2022/07/17 08:31:26;;;;;;;;;2.00;2.00;;;;;24.98;36.00;102296.19;2403014;28;45291;-80
2022/07/17 08:32:39;;;;;;;;;3.75;2.50;;;;;25.02;36.62;102297.72;2402662;28;46677;-80
2022/07/17 08:33:49;;;;;;;;;5.25;3.75;;;;;25.01;36.54;102297.84;2401256;28;45280;-80
2022/07/17 08:35:00;;;;;;;;;2.75;2.25;;;;;25.05;36.63;102302.88;2401088;28;45483;-80
2022/07/17 08:36:10;;;;;;;;;3.00;3.00;;;;;25.07;36.04;102302.78;2402905;28;45459;-80
2022/07/17 08:37:20;;;;;;;;;3.50;2.00;;;;;25.09;36.53;102300.81;2402309;28;47003;-80
2022/07/17 08:38:31;;;;;;;;;3.25;3.25;;;;;25.13;36.32;102293.41;2401989;28;45599;-80
2022/07/17 08:39:41;;;;;;;;;4.00;3.25;;;;;25.16;35.88;102299.41;2395236;28;47310;-79
2022/07/17 08:40:53;;;;;;;;;2.75;2.75;;;;;25.17;36.21;102294.91;2395870;28;44740;-80
2022/07/17 08:42:04;;;;;;;;;3.75;3.75;;;;;25.18;35.58;102302.03;2403038;28;46468;-80
2022/07/17 08:43:14;;;;;;;;;4.75;3.00;;;;;25.21;36.03;102299.09;2394068;28;45361;-80
2022/07/17 08:44:24;;;;;;;;;2.75;2.75;;;;;25.26;36.02;102302.31;2401758;28;47407;-80
2022/07/17 08:45:36;;;;;;;;;1.25;1.25;;;;;25.28;36.08;102302.22;2399390;28;45321;-80
2022/07/17 08:46:46;;;;;;;;;2.50;2.50;;;;;25.29;35.65;102302.09;2399058;28;45611;-80
2022/07/17 08:47:57;;;;;;;;;5.00;4.00;;;;;25.31;35.92;102307.34;2393339;28;45390;-80
2022/07/17 08:49:07;;;;;;;;;3.00;3.00;;;;;25.32;36.07;102297.47;2393302;28;45565;-80
2022/07/17 08:50:26;;;;;;;;;3.00;3.00;;;;;25.34;36.02;102299.06;2406876;28;44799;-80
2022/07/17 08:51:36;;;;;;;;;4.75;3.00;;;;;25.36;36.08;102299.81;2392520;28;48489;-80
2022/07/17 08:52:46;;;;;;;;;4.00;4.00;;;;;25.37;35.61;102304.25;2388792;28;45413;-80
2022/07/17 08:53:58;;;;;;;;;3.00;3.00;;;;;25.38;35.67;102303.28;2397466;28;45654;-80
2022/07/17 08:55:12;;;;;;;;;3.00;3.00;;;;;25.41;35.73;102310.25;2401932;28;45297;-80
2022/07/17 08:56:23;;;;;;;;;4.00;3.00;;;;;25.43;35.59;102299.41;2403058;28;45417;-81
2022/07/17 08:57:37;;;;;;;;;4.75;2.00;;;;;25.45;35.30;102310.91;2401389;28;44810;-80
2022/07/17 08:58:47;;;;;;;;;3.00;2.25;;;;;25.46;35.55;102299.19;2393724;28;47239;-80
2022/07/17 08:59:58;;;;;;;;;4.50;2.00;;;;;25.47;35.57;102301.75;2396574;28;44747;-80
2022/07/17 09:01:08;;;;;;;;;4.00;3.75;;;;;25.50;35.50;102296.16;2403277;28;45450;-80
2022/07/17 09:02:18;;;;;;;;;4.50;3.00;;;;;25.54;35.90;102301.28;2393689;28;44739;-80
2022/07/17 09:03:29;;;;;;;;;4.00;3.00;;;;;25.58;35.20;102306.31;2396313;28;45352;-80
2022/07/17 09:04:39;;;;;;;;;3.50;2.50;;;;;25.60;34.80;102304.41;2397475;28;45866;-80
2022/07/17 09:05:50;;;;;;;;;3.00;3.00;;;;;25.61;35.12;102306.13;2396673;28;45471;-80
2022/07/17 09:07:02;;;;;;;;;5.00;3.00;;;;;25.63;35.62;102297.94;2403615;28;45324;-80
2022/07/17 09:08:19;;;;;;;;;3.75;3.00;;;;;25.66;34.89;102296.84;2401795;28;46995;-80
2022/07/17 09:09:30;;;;;;;;;4.00;3.00;;;;;25.69;35.09;102304.69;2403308;28;45288;-80
2022/07/17 09:10:44;;;;;;;;;4.25;3.00;;;;;25.73;35.21;102300.84;2392846;28;48453;-80
2022/07/17 09:11:56;;;;;;;;;3.00;3.00;;;;;25.76;35.07;102295.22;2394744;28;45505;-81
2022/07/17 09:13:31;;;;;;;;;3.00;3.00;;;;;25.78;34.64;102295.97;2402931;28;45408;-80
2022/07/17 09:14:41;;;;;;;;;3.25;3.25;;;;;25.79;34.76;102300.38;2392058;28;45710;-81
2022/07/17 09:15:56;;;;;;;;;2.25;2.25;;;;;25.81;35.12;102301.13;2395301;28;46431;-81
2022/07/17 09:17:08;;;;;;;;;4.00;4.00;;;;;25.81;34.98;102292.19;2403234;28;44631;-80
2022/07/17 09:18:19;;;;;;;;;5.00;4.00;;;;;25.82;35.23;102294.78;2401737;28;45636;-80
2022/07/17 09:19:32;;;;;;;;;2.50;2.50;;;;;25.87;35.00;102298.94;2402684;28;44765;-80
2022/07/17 09:20:53;;;;;;;;;3.00;3.00;;;;;25.88;34.06;102298.00;2393178;28;47545;-80
2022/07/17 09:22:32;;;;;;;;;2.75;2.75;;;;;25.85;34.42;102293.69;2393438;28;45323;-80
2022/07/17 09:23:43;;;;;;;;;5.25;4.00;;;;;25.84;34.22;102297.34;2376830;28;47338;-80
2022/07/17 09:24:58;;;;;;;;;6.00;3.25;;;;;25.84;34.19;102302.72;2396351;28;44636;-80
2022/07/17 09:26:09;;;;;;;;;4.00;3.00;;;;;25.84;34.61;102297.34;2403556;28;46583;-80
2022/07/17 09:27:33;;;;;;;;;6.25;4.75;;;;;25.88;34.27;102295.31;2402946;28;45163;-80
2022/07/17 09:28:45;;;;;;;;;3.50;3.00;;;;;25.88;34.30;102288.06;2403795;28;46078;-80
2022/07/17 09:30:09;;;;;;;;;3.00;3.00;;;;;25.92;34.42;102292.25;2403039;28;45384;-80
2022/07/17 09:31:30;;;;;;;;;3.75;3.75;;;;;25.96;34.99;102293.75;2402300;28;46042;-80
2022/07/17 09:32:42;;;;;;;;;4.00;4.00;;;;;25.99;34.55;102291.78;2402329;28;45325;-80
2022/07/17 09:33:52;;;;;;;;;3.00;2.50;;;;;26.01;34.48;102293.38;2393897;28;46514;-80
2022/07/17 09:35:05;;;;;;;;;1.25;1.25;;;;;26.04;34.54;102289.59;2403280;28;45238;-80
2022/07/17 09:36:16;;;;;;;;;2.50;2.50;;;;;26.07;33.95;102292.06;2403329;28;46669;-81
2022/07/17 09:37:28;;;;;;;;;4.50;4.50;;;;;26.13;34.51;102290.72;2402506;28;46915;-79
2022/07/17 09:38:41;;;;;;;;;3.00;3.00;;;;;26.16;34.08;102295.91;2403367;28;46346;-80
2022/07/17 09:39:53;;;;;;;;;3.50;3.50;;;;;26.19;34.10;102295.66;2403335;28;45270;-80
2022/07/17 09:41:18;;;;;;;;;3.00;3.00;;;;;26.22;34.33;102300.84;2403341;28;46108;-80
2022/07/17 09:42:31;;;;;;;;;4.00;3.00;;;;;26.24;34.43;102293.50;2403963;28;45457;-80
2022/07/17 09:43:53;;;;;;;;;2.00;2.00;;;;;26.26;34.01;102299.63;2393654;28;45420;-80
2022/07/17 09:45:09;;;;;;;;;4.75;3.00;;;;;26.29;33.71;102302.09;2397293;28;45408;-80
2022/07/17 09:46:37;;;;;;;;;2.00;2.00;;;;;26.30;33.70;102303.78;2402954;28;45551;-80
2022/07/17 09:47:48;;;;;;;;;2.00;2.00;;;;;26.32;34.39;102302.81;2392625;28;45302;-80
2022/07/17 09:49:01;;;;;;;;;2.25;2.25;;;;;26.32;33.82;102300.13;2386460;28;48100;-80
2022/07/17 09:50:11;;;;;;;;;4.00;4.00;;;;;26.33;33.61;102299.13;2396862;28;44764;-80
2022/07/17 09:51:27;;;;;;;;;3.50;3.50;;;;;26.36;33.78;102305.16;2403096;28;45493;-80
2022/07/17 09:52:38;;;;;;;;;6.00;4.50;;;;;26.34;33.17;102293.66;2403221;28;45407;-80
2022/07/17 09:53:51;;;;;;;;;3.00;3.00;;;;;26.36;33.05;102296.22;2403254;28;45461;-80
2022/07/17 09:55:03;;;;;;;;;3.25;3.25;;;;;26.34;33.55;102292.78;2403051;28;45452;-80
2022/07/17 09:56:19;;;;;;;;;3.75;3.75;;;;;26.35;33.02;102286.44;2402737;28;48147;-80
2022/07/17 09:57:32;;;;;;;;;3.00;3.00;;;;;26.38;33.35;102288.88;2399617;28;45361;-80
2022/07/17 09:58:46;;;;;;;;;3.50;3.50;;;;;26.38;33.01;102288.88;2403226;28;45364;-79
2022/07/17 10:00:03;;;;;;;;;3.00;3.00;;;;;26.43;33.85;102289.41;2403666;28;44717;-79
2022/07/17 10:01:15;;;;;;;;;2.00;2.00;;;;;26.43;33.64;102284.00;2402792;28;46768;-80
2022/07/17 10:02:26;;;;;;;;;3.00;3.00;;;;;26.46;33.49;102286.47;2408315;28;45282;-79
2022/07/17 10:03:36;;;;;;;;;3.00;3.00;;;;;26.46;33.48;102281.09;2402659;28;45385;-79
2022/07/17 10:04:48;;;;;;;;;3.00;3.00;;;;;26.48;33.30;102273.72;2402785;28;45325;-80
2022/07/17 10:05:58;;;;;;;;;1.75;1.75;;;;;26.52;32.98;102283.28;2402560;28;45523;-80
2022/07/17 10:07:09;;;;;;;;;5.00;4.00;;;;;26.53;33.36;102284.16;2401550;28;45564;-79
2022/07/17 10:08:19;;;;;;;;;4.25;4.25;;;;;26.54;33.47;102288.59;2401820;28;45454;-79
2022/07/17 10:09:30;;;;;;;;;3.25;3.00;;;;;26.56;33.19;102289.31;2403440;28;45170;-79
2022/07/17 10:10:40;;;;;;;;;3.25;3.25;;;;;26.57;32.64;102292.88;2403072;28;45475;-80
2022/07/17 10:11:52;;;;;;;;;3.75;3.75;;;;;26.58;32.50;102294.59;2403191;28;45407;-80
2022/07/17 10:13:02;;;;;;;;;5.00;3.25;;;;;26.58;32.83;102298.13;2392867;28;47108;-80
2022/07/17 10:14:15;;;;;;;;;3.00;2.25;;;;;26.60;32.51;102298.88;2396353;28;45224;-80
2022/07/17 10:15:27;;;;;;;;;3.00;3.00;;;;;26.60;32.70;102292.63;2403101;28;46496;-79
2022/07/17 10:16:38;;;;;;;;;2.00;2.00;;;;;26.62;32.94;102293.34;2402280;28;44813;-79
2022/07/17 10:17:49;;;;;;;;;3.25;3.00;;;;;26.62;33.01;102291.53;2400352;28;46652;-79
2022/07/17 10:19:02;;;;;;;;;5.00;3.00;;;;;26.65;33.27;102287.72;2403494;28;45219;-79
2022/07/17 10:20:13;;;;;;;;;3.00;3.00;;;;;26.67;32.86;102293.03;2392670;28;48272;-80
2022/07/17 10:21:25;;;;;;;;;4.00;4.00;;;;;26.69;32.95;102285.66;2386597;28;44729;-79
2022/07/17 10:22:44;;;;;;;;;5.00;5.00;;;;;26.70;32.43;102293.63;2393442;28;45453;-79
2022/07/17 10:23:54;;;;;;;;;4.00;4.00;;;;;26.70;32.07;102296.31;2401669;28;44809;-79
2022/07/17 10:25:05;;;;;;;;;5.25;4.50;;;;;26.72;32.34;102296.19;2402327;28;48618;-79
2022/07/17 10:26:15;;;;;;;;;4.00;4.00;;;;;26.72;32.59;102297.06;2402119;28;45258;-79
2022/07/17 10:27:29;;;;;;;;;4.00;4.00;;;;;26.75;32.34;102293.25;2403093;28;45324;-79
2022/07/17 10:28:44;;;;;;;;;2.00;2.00;;;;;26.78;32.47;102297.56;2392931;28;44692;-79
2022/07/17 10:29:59;;;;;;;;;3.75;2.75;;;;;26.79;32.26;102296.59;2399760;28;45288;-79
2022/07/17 10:31:10;;;;;;;;;4.50;2.50;;;;;26.79;32.32;102296.59;2403107;28;45483;-79
2022/07/17 10:32:21;;;;;;;;;3.75;3.50;;;;;26.81;32.76;102300.88;2402471;28;46182;-79
2022/07/17 10:33:31;;;;;;;;;4.25;4.25;;;;;26.83;32.32;102293.53;2385989;28;44748;-79
2022/07/17 10:34:53;;;;;;;;;3.00;3.00;;;;;26.87;32.73;102298.69;2393011;28;45399;-79
2022/07/17 10:36:04;;;;;;;;;4.50;4.00;;;;;26.88;32.65;102298.56;2402669;28;45202;-78
2022/07/17 10:37:27;;;;;;;;;4.50;4.00;;;;;26.91;32.34;102301.03;2401232;28;45206;-78
2022/07/17 10:38:42;;;;;;;;;4.50;3.50;;;;;26.92;32.58;102302.72;2398551;28;44888;-79
2022/07/17 10:39:58;;;;;;;;;4.00;3.50;;;;;26.93;32.66;102304.44;2399309;28;46221;-78
2022/07/17 10:41:08;;;;;;;;;4.00;4.00;;;;;26.93;32.46;102301.75;2396781;28;45314;-78
2022/07/17 10:42:38;;;;;;;;;4.00;4.00;;;;;26.91;32.53;102301.03;2402428;28;46239;-79
2022/07/17 10:43:49;;;;;;;;;3.75;3.75;;;;;26.89;32.90;102305.66;2400764;28;45421;-79
2022/07/17 10:45:07;;;;;;;;;3.25;3.25;;;;;26.87;33.35;102299.53;2402947;28;45514;-78
2022/07/17 10:46:17;;;;;;;;;5.50;4.00;;;;;26.87;32.87;102315.72;2402088;28;45399;-78
2022/07/17 10:47:28;;;;;;;;;3.50;3.50;;;;;26.87;32.62;102313.00;2391361;28;48291;-78
2022/07/17 10:48:40;;;;;;;;;4.25;4.00;;;;;26.85;32.92;102304.19;2385777;28;45305;-78
2022/07/17 10:49:51;;;;;;;;;3.00;3.00;;;;;26.84;32.65;102305.19;2394927;28;45714;-79
2022/07/17 10:51:02;;;;;;;;;6.25;4.25;;;;;26.82;33.10;102305.28;2396859;28;45187;-79
2022/07/17 10:52:12;;;;;;;;;5.75;5.75;;;;;26.80;33.42;102306.38;2401834;28;45415;-79